sensor_id;sensor_type;location;lat;lon;timestamp;P1;durP1;ratioP1;P2;durP2;ratioP2
9904;SDS011;4991;43.566;27.820;2023-11-19T00:01:34;10.87;;;10.03;;
9904;SDS011;4991;43.566;27.820;2023-11-19T00:06:51;0.23;;;0.23;;
9904;SDS011;4991;43.566;27.820;2023-11-19T00:09:27;0.00;;;0.00;;
9904;SDS011;4991;43.566;27.820;2023-11-19T00:12:03;0.10;;;0.10;;
9904;SDS011;4991;43.566;27.820;2023-11-19T00:20:58;0.10;;;0.10;;
9904;SDS011;4991;43.566;27.820;2023-11-19T00:24:09;0.00;;;0.00;;
9904;SDS011;4991;43.566;27.820;2023-11-19T00:27:13;0.70;;;0.70;;
9904;SDS011;4991;43.566;27.820;2023-11-19T00:36:38;10.60;;;4.23;;
9904;SDS011;4991;43.566;27.820;2023-11-19T00:40:10;14.83;;;8.50;;
9904;SDS011;4991;43.566;27.820;2023-11-19T00:43:36;0.23;;;0.23;;
9904;SDS011;4991;43.566;27.820;2023-11-19T00:52:30;0.10;;;0.10;;
9904;SDS011;4991;43.566;27.820;2023-11-19T00:54:58;0.50;;;0.50;;
9904;SDS011;4991;43.566;27.820;2023-11-19T00:57:26;0.10;;;0.10;;
9904;SDS011;4991;43.566;27.820;2023-11-19T00:59:55;0.10;;;0.10;;
9904;SDS011;4991;43.566;27.820;2023-11-19T01:02:21;0.10;;;0.10;;
9904;SDS011;4991;43.566;27.820;2023-11-19T01:04:50;0.10;;;0.10;;
9904;SDS011;4991;43.566;27.820;2023-11-19T01:07:24;0.03;;;0.03;;
9904;SDS011;4991;43.566;27.820;2023-11-19T01:09:55;0.37;;;0.37;;
9904;SDS011;4991;43.566;27.820;2023-11-19T01:12:21;0.10;;;0.10;;
9904;SDS011;4991;43.566;27.820;2023-11-19T01:14:50;0.10;;;0.10;;
9904;SDS011;4991;43.566;27.820;2023-11-19T01:17:20;0.00;;;0.00;;
9904;SDS011;4991;43.566;27.820;2023-11-19T01:19:45;0.17;;;0.17;;
9904;SDS011;4991;43.566;27.820;2023-11-19T01:22:13;0.43;;;0.43;;
9904;SDS011;4991;43.566;27.820;2023-11-19T01:24:39;12.73;;;7.00;;
9904;SDS011;4991;43.566;27.820;2023-11-19T01:27:07;0.20;;;0.20;;
9904;SDS011;4991;43.566;27.820;2023-11-19T01:29:33;5.40;;;2.00;;
9904;SDS011;4991;43.566;27.820;2023-11-19T01:32:05;0.10;;;0.10;;
9904;SDS011;4991;43.566;27.820;2023-11-19T01:34:36;0.10;;;0.10;;
9904;SDS011;4991;43.566;27.820;2023-11-19T01:37:02;0.10;;;0.10;;
9904;SDS011;4991;43.566;27.820;2023-11-19T01:39:28;0.67;;;0.67;;
9904;SDS011;4991;43.566;27.820;2023-11-19T01:41:53;0.40;;;0.40;;
9904;SDS011;4991;43.566;27.820;2023-11-19T01:44:22;0.10;;;0.10;;
9904;SDS011;4991;43.566;27.820;2023-11-19T01:46:48;17.43;;;8.50;;
9904;SDS011;4991;43.566;27.820;2023-11-19T01:49:16;0.10;;;0.10;;
9904;SDS011;4991;43.566;27.820;2023-11-19T01:51:43;0.10;;;0.10;;
9904;SDS011;4991;43.566;27.820;2023-11-19T01:54:09;0.10;;;0.10;;
9904;SDS011;4991;43.566;27.820;2023-11-19T01:56:38;0.20;;;0.20;;
9904;SDS011;4991;43.566;27.820;2023-11-19T01:59:12;16.70;;;8.93;;
9904;SDS011;4991;43.566;27.820;2023-11-19T02:01:54;0.10;;;0.10;;
9904;SDS011;4991;43.566;27.820;2023-11-19T02:04:20;0.10;;;0.10;;
9904;SDS011;4991;43.566;27.820;2023-11-19T02:06:50;2.47;;;1.70;;
9904;SDS011;4991;43.566;27.820;2023-11-19T02:09:19;0.10;;;0.10;;
9904;SDS011;4991;43.566;27.820;2023-11-19T02:11:46;15.70;;;8.60;;
9904;SDS011;4991;43.566;27.820;2023-11-19T02:14:20;0.27;;;0.27;;
9904;SDS011;4991;43.566;27.820;2023-11-19T02:16:49;0.10;;;0.10;;
9904;SDS011;4991;43.566;27.820;2023-11-19T02:19:15;0.23;;;0.23;;
9904;SDS011;4991;43.566;27.820;2023-11-19T02:21:40;0.13;;;0.13;;
9904;SDS011;4991;43.566;27.820;2023-11-19T02:24:07;2.67;;;0.77;;
9904;SDS011;4991;43.566;27.820;2023-11-19T02:26:40;0.37;;;0.37;;
9904;SDS011;4991;43.566;27.820;2023-11-19T02:29:21;0.30;;;0.30;;
9904;SDS011;4991;43.566;27.820;2023-11-19T02:31:48;0.10;;;0.10;;
9904;SDS011;4991;43.566;27.820;2023-11-19T02:34:14;0.10;;;0.10;;
9904;SDS011;4991;43.566;27.820;2023-11-19T02:36:39;0.10;;;0.10;;
9904;SDS011;4991;43.566;27.820;2023-11-19T02:39:07;1.33;;;0.53;;
9904;SDS011;4991;43.566;27.820;2023-11-19T02:41:38;9.53;;;5.10;;
9904;SDS011;4991;43.566;27.820;2023-11-19T02:44:10;0.10;;;0.10;;
9904;SDS011;4991;43.566;27.820;2023-11-19T02:46:37;0.20;;;0.20;;
9904;SDS011;4991;43.566;27.820;2023-11-19T02:49:09;0.10;;;0.10;;
9904;SDS011;4991;43.566;27.820;2023-11-19T02:51:35;0.10;;;0.10;;
9904;SDS011;4991;43.566;27.820;2023-11-19T02:54:03;0.40;;;0.40;;
9904;SDS011;4991;43.566;27.820;2023-11-19T02:56:31;5.07;;;3.13;;
9904;SDS011;4991;43.566;27.820;2023-11-19T02:59:01;0.20;;;0.20;;
9904;SDS011;4991;43.566;27.820;2023-11-19T03:01:35;0.10;;;0.10;;
9904;SDS011;4991;43.566;27.820;2023-11-19T03:04:01;0.77;;;0.77;;
9904;SDS011;4991;43.566;27.820;2023-11-19T03:06:29;1.17;;;1.10;;
9904;SDS011;4991;43.566;27.820;2023-11-19T03:09:15;1.63;;;1.53;;
9904;SDS011;4991;43.566;27.820;2023-11-19T03:11:43;0.33;;;0.33;;
9904;SDS011;4991;43.566;27.820;2023-11-19T03:14:08;0.30;;;0.30;;
9904;SDS011;4991;43.566;27.820;2023-11-19T03:16:40;2.30;;;2.20;;
9904;SDS011;4991;43.566;27.820;2023-11-19T03:19:05;0.20;;;0.20;;
9904;SDS011;4991;43.566;27.820;2023-11-19T03:21:31;0.10;;;0.10;;
9904;SDS011;4991;43.566;27.820;2023-11-19T03:23:57;21.73;;;10.40;;
9904;SDS011;4991;43.566;27.820;2023-11-19T03:26:26;0.17;;;0.17;;
9904;SDS011;4991;43.566;27.820;2023-11-19T03:28:52;0.40;;;0.40;;
9904;SDS011;4991;43.566;27.820;2023-11-19T03:31:20;13.40;;;7.43;;
9904;SDS011;4991;43.566;27.820;2023-11-19T03:33:46;0.17;;;0.17;;
9904;SDS011;4991;43.566;27.820;2023-11-19T03:36:12;0.10;;;0.10;;
9904;SDS011;4991;43.566;27.820;2023-11-19T03:38:38;18.10;;;11.73;;
9904;SDS011;4991;43.566;27.820;2023-11-19T03:41:13;1.20;;;1.20;;
9904;SDS011;4991;43.566;27.820;2023-11-19T03:43:39;0.00;;;0.00;;
9904;SDS011;4991;43.566;27.820;2023-11-19T03:46:26;0.10;;;0.10;;
9904;SDS011;4991;43.566;27.820;2023-11-19T03:48:52;0.10;;;0.10;;
9904;SDS011;4991;43.566;27.820;2023-11-19T03:51:18;0.23;;;0.23;;
9904;SDS011;4991;43.566;27.820;2023-11-19T03:53:47;0.10;;;0.10;;
9904;SDS011;4991;43.566;27.820;2023-11-19T03:56:12;5.53;;;3.87;;
9904;SDS011;4991;43.566;27.820;2023-11-19T03:58:38;4.70;;;1.90;;
9904;SDS011;4991;43.566;27.820;2023-11-19T04:01:15;0.10;;;0.10;;
9904;SDS011;4991;43.566;27.820;2023-11-19T04:03:42;0.50;;;0.50;;
9904;SDS011;4991;43.566;27.820;2023-11-19T04:06:07;10.93;;;6.77;;
9904;SDS011;4991;43.566;27.820;2023-11-19T04:08:33;0.10;;;0.10;;
9904;SDS011;4991;43.566;27.820;2023-11-19T04:11:00;16.97;;;9.83;;
9904;SDS011;4991;43.566;27.820;2023-11-19T04:13:26;18.13;;;11.77;;
9904;SDS011;4991;43.566;27.820;2023-11-19T04:15:51;2.23;;;1.23;;
9904;SDS011;4991;43.566;27.820;2023-11-19T04:18:17;0.20;;;0.20;;
9904;SDS011;4991;43.566;27.820;2023-11-19T04:20:44;0.10;;;0.10;;
9904;SDS011;4991;43.566;27.820;2023-11-19T04:23:09;0.10;;;0.10;;
9904;SDS011;4991;43.566;27.820;2023-11-19T04:25:35;0.10;;;0.10;;
9904;SDS011;4991;43.566;27.820;2023-11-19T04:28:01;8.93;;;5.73;;
9904;SDS011;4991;43.566;27.820;2023-11-19T04:30:29;0.60;;;0.60;;
9904;SDS011;4991;43.566;27.820;2023-11-19T04:32:57;15.90;;;10.17;;
9904;SDS011;4991;43.566;27.820;2023-11-19T04:35:23;0.50;;;0.50;;
9904;SDS011;4991;43.566;27.820;2023-11-19T04:37:48;0.53;;;0.53;;
9904;SDS011;4991;43.566;27.820;2023-11-19T04:40:14;0.10;;;0.10;;
9904;SDS011;4991;43.566;27.820;2023-11-19T04:42:39;0.10;;;0.10;;
9904;SDS011;4991;43.566;27.820;2023-11-19T04:45:09;0.70;;;0.70;;
9904;SDS011;4991;43.566;27.820;2023-11-19T04:47:36;15.20;;;8.60;;
9904;SDS011;4991;43.566;27.820;2023-11-19T04:50:02;17.43;;;11.07;;
9904;SDS011;4991;43.566;27.820;2023-11-19T04:54:59;0.20;;;0.20;;
9904;SDS011;4991;43.566;27.820;2023-11-19T04:57:25;10.97;;;7.37;;
9904;SDS011;4991;43.566;27.820;2023-11-19T04:59:51;3.93;;;2.63;;
9904;SDS011;4991;43.566;27.820;2023-11-19T05:02:17;0.10;;;0.10;;
9904;SDS011;4991;43.566;27.820;2023-11-19T05:04:43;6.93;;;4.60;;
9904;SDS011;4991;43.566;27.820;2023-11-19T05:07:12;0.73;;;0.73;;
9904;SDS011;4991;43.566;27.820;2023-11-19T05:09:37;12.70;;;8.37;;
9904;SDS011;4991;43.566;27.820;2023-11-19T05:12:05;0.10;;;0.10;;
9904;SDS011;4991;43.566;27.820;2023-11-19T05:14:33;3.13;;;2.83;;
9904;SDS011;4991;43.566;27.820;2023-11-19T05:16:59;0.20;;;0.20;;
9904;SDS011;4991;43.566;27.820;2023-11-19T05:19:25;0.40;;;0.40;;
9904;SDS011;4991;43.566;27.820;2023-11-19T05:21:51;6.50;;;4.13;;
9904;SDS011;4991;43.566;27.820;2023-11-19T05:24:19;11.80;;;7.43;;
9904;SDS011;4991;43.566;27.820;2023-11-19T05:26:45;11.83;;;8.17;;
9904;SDS011;4991;43.566;27.820;2023-11-19T05:29:12;8.83;;;6.67;;
9904;SDS011;4991;43.566;27.820;2023-11-19T05:31:37;11.47;;;7.43;;
9904;SDS011;4991;43.566;27.820;2023-11-19T05:34:04;10.47;;;6.30;;
9904;SDS011;4991;43.566;27.820;2023-11-19T05:36:31;9.13;;;6.00;;
9904;SDS011;4991;43.566;27.820;2023-11-19T05:38:59;9.13;;;6.40;;
9904;SDS011;4991;43.566;27.820;2023-11-19T05:41:25;8.57;;;6.57;;
9904;SDS011;4991;43.566;27.820;2023-11-19T05:43:50;11.57;;;7.70;;
9904;SDS011;4991;43.566;27.820;2023-11-19T05:46:16;12.97;;;7.70;;
9904;SDS011;4991;43.566;27.820;2023-11-19T05:48:42;9.30;;;6.47;;
9904;SDS011;4991;43.566;27.820;2023-11-19T05:51:08;10.97;;;7.80;;
9904;SDS011;4991;43.566;27.820;2023-11-19T05:53:34;13.63;;;6.83;;
9904;SDS011;4991;43.566;27.820;2023-11-19T05:55:59;8.27;;;6.17;;
9904;SDS011;4991;43.566;27.820;2023-11-19T05:58:29;10.63;;;6.33;;
9904;SDS011;4991;43.566;27.820;2023-11-19T06:00:56;9.60;;;6.60;;
9904;SDS011;4991;43.566;27.820;2023-11-19T06:03:22;6.47;;;4.43;;
9904;SDS011;4991;43.566;27.820;2023-11-19T06:05:49;9.20;;;6.73;;
9904;SDS011;4991;43.566;27.820;2023-11-19T06:08:16;6.87;;;4.37;;
9904;SDS011;4991;43.566;27.820;2023-11-19T06:10:43;9.73;;;6.77;;
9904;SDS011;4991;43.566;27.820;2023-11-19T06:13:11;8.97;;;6.27;;
9904;SDS011;4991;43.566;27.820;2023-11-19T06:15:43;9.07;;;6.50;;
9904;SDS011;4991;43.566;27.820;2023-11-19T06:18:10;6.77;;;4.90;;
9904;SDS011;4991;43.566;27.820;2023-11-19T06:20:40;9.50;;;6.60;;
9904;SDS011;4991;43.566;27.820;2023-11-19T06:23:06;7.90;;;6.30;;
9904;SDS011;4991;43.566;27.820;2023-11-19T06:25:52;11.20;;;6.30;;
9904;SDS011;4991;43.566;27.820;2023-11-19T06:28:19;7.80;;;6.67;;
9904;SDS011;4991;43.566;27.820;2023-11-19T06:30:45;12.23;;;8.07;;
9904;SDS011;4991;43.566;27.820;2023-11-19T06:33:14;8.93;;;6.13;;
9904;SDS011;4991;43.566;27.820;2023-11-19T06:35:42;8.27;;;6.20;;
9904;SDS011;4991;43.566;27.820;2023-11-19T06:38:11;9.83;;;6.47;;
9904;SDS011;4991;43.566;27.820;2023-11-19T06:40:57;9.07;;;5.90;;
9904;SDS011;4991;43.566;27.820;2023-11-19T06:43:24;10.70;;;8.13;;
9904;SDS011;4991;43.566;27.820;2023-11-19T06:45:50;10.77;;;7.20;;
9904;SDS011;4991;43.566;27.820;2023-11-19T06:48:22;11.27;;;7.80;;
9904;SDS011;4991;43.566;27.820;2023-11-19T06:53:42;8.93;;;6.40;;
9904;SDS011;4991;43.566;27.820;2023-11-19T06:59:23;17.97;;;10.47;;
9904;SDS011;4991;43.566;27.820;2023-11-19T07:01:50;17.90;;;9.10;;
9904;SDS011;4991;43.566;27.820;2023-11-19T07:04:17;12.13;;;8.10;;
9904;SDS011;4991;43.566;27.820;2023-11-19T07:07:01;14.40;;;9.27;;
9904;SDS011;4991;43.566;27.820;2023-11-19T07:09:43;13.47;;;8.33;;
9904;SDS011;4991;43.566;27.820;2023-11-19T07:12:09;13.23;;;9.13;;
9904;SDS011;4991;43.566;27.820;2023-11-19T07:14:40;12.40;;;6.70;;
9904;SDS011;4991;43.566;27.820;2023-11-19T07:17:09;12.53;;;8.03;;
9904;SDS011;4991;43.566;27.820;2023-11-19T07:19:38;11.00;;;7.73;;
9904;SDS011;4991;43.566;27.820;2023-11-19T07:22:04;13.90;;;8.00;;
9904;SDS011;4991;43.566;27.820;2023-11-19T07:24:31;10.17;;;6.93;;
9904;SDS011;4991;43.566;27.820;2023-11-19T07:27:03;11.33;;;9.07;;
9904;SDS011;4991;43.566;27.820;2023-11-19T07:35:03;10.10;;;7.23;;
9904;SDS011;4991;43.566;27.820;2023-11-19T07:37:30;11.80;;;6.53;;
9904;SDS011;4991;43.566;27.820;2023-11-19T07:43:13;13.40;;;9.03;;
9904;SDS011;4991;43.566;27.820;2023-11-19T07:45:46;11.40;;;7.20;;
9904;SDS011;4991;43.566;27.820;2023-11-19T07:48:17;9.10;;;6.23;;
9904;SDS011;4991;43.566;27.820;2023-11-19T07:50:48;10.27;;;7.20;;
9904;SDS011;4991;43.566;27.820;2023-11-19T07:55:46;8.50;;;6.27;;
9904;SDS011;4991;43.566;27.820;2023-11-19T07:58:12;11.67;;;8.17;;
9904;SDS011;4991;43.566;27.820;2023-11-19T08:00:38;15.17;;;7.90;;
9904;SDS011;4991;43.566;27.820;2023-11-19T08:03:03;7.73;;;5.97;;
9904;SDS011;4991;43.566;27.820;2023-11-19T08:05:30;11.47;;;7.63;;
9904;SDS011;4991;43.566;27.820;2023-11-19T08:08:19;9.63;;;6.20;;
9904;SDS011;4991;43.566;27.820;2023-11-19T08:11:05;9.77;;;7.07;;
9904;SDS011;4991;43.566;27.820;2023-11-19T08:13:31;9.70;;;6.20;;
9904;SDS011;4991;43.566;27.820;2023-11-19T08:15:57;9.83;;;6.73;;
9904;SDS011;4991;43.566;27.820;2023-11-19T08:18:24;8.57;;;6.47;;
9904;SDS011;4991;43.566;27.820;2023-11-19T08:20:50;10.03;;;7.77;;
9904;SDS011;4991;43.566;27.820;2023-11-19T08:23:19;7.80;;;5.70;;
9904;SDS011;4991;43.566;27.820;2023-11-19T08:25:46;13.60;;;9.07;;
9904;SDS011;4991;43.566;27.820;2023-11-19T08:28:11;12.23;;;8.20;;
9904;SDS011;4991;43.566;27.820;2023-11-19T08:30:38;9.47;;;6.83;;
9904;SDS011;4991;43.566;27.820;2023-11-19T08:33:18;10.37;;;7.80;;
9904;SDS011;4991;43.566;27.820;2023-11-19T08:38:29;8.53;;;5.83;;
9904;SDS011;4991;43.566;27.820;2023-11-19T08:40:55;9.77;;;5.13;;
9904;SDS011;4991;43.566;27.820;2023-11-19T08:43:27;8.63;;;6.33;;
9904;SDS011;4991;43.566;27.820;2023-11-19T08:45:53;9.37;;;6.57;;
9904;SDS011;4991;43.566;27.820;2023-11-19T08:48:25;9.13;;;6.67;;
9904;SDS011;4991;43.566;27.820;2023-11-19T08:50:52;8.80;;;5.87;;
9904;SDS011;4991;43.566;27.820;2023-11-19T08:53:18;9.80;;;6.33;;
9904;SDS011;4991;43.566;27.820;2023-11-19T08:55:45;9.40;;;6.23;;
9904;SDS011;4991;43.566;27.820;2023-11-19T08:58:11;9.07;;;6.40;;
9904;SDS011;4991;43.566;27.820;2023-11-19T09:00:37;6.33;;;4.53;;
9904;SDS011;4991;43.566;27.820;2023-11-19T09:03:03;10.97;;;7.93;;
9904;SDS011;4991;43.566;27.820;2023-11-19T09:05:30;11.40;;;7.10;;
9904;SDS011;4991;43.566;27.820;2023-11-19T09:07:56;10.87;;;7.20;;
9904;SDS011;4991;43.566;27.820;2023-11-19T09:10:21;12.07;;;7.43;;
9904;SDS011;4991;43.566;27.820;2023-11-19T09:12:47;11.47;;;6.47;;
9904;SDS011;4991;43.566;27.820;2023-11-19T09:15:12;9.80;;;6.50;;
9904;SDS011;4991;43.566;27.820;2023-11-19T09:17:38;8.97;;;6.17;;
9904;SDS011;4991;43.566;27.820;2023-11-19T09:20:04;12.77;;;7.53;;
9904;SDS011;4991;43.566;27.820;2023-11-19T09:22:31;10.90;;;7.20;;
9904;SDS011;4991;43.566;27.820;2023-11-19T09:24:57;11.83;;;8.40;;
9904;SDS011;4991;43.566;27.820;2023-11-19T09:27:25;14.83;;;8.50;;
9904;SDS011;4991;43.566;27.820;2023-11-19T09:29:55;12.87;;;8.03;;
9904;SDS011;4991;43.566;27.820;2023-11-19T09:32:24;10.13;;;7.13;;
9904;SDS011;4991;43.566;27.820;2023-11-19T09:37:18;13.30;;;10.30;;
9904;SDS011;4991;43.566;27.820;2023-11-19T09:39:44;10.67;;;7.90;;
9904;SDS011;4991;43.566;27.820;2023-11-19T09:42:10;9.43;;;7.77;;
9904;SDS011;4991;43.566;27.820;2023-11-19T09:44:39;11.90;;;7.53;;
9904;SDS011;4991;43.566;27.820;2023-11-19T09:47:08;8.53;;;6.50;;
9904;SDS011;4991;43.566;27.820;2023-11-19T09:49:35;15.40;;;8.60;;
9904;SDS011;4991;43.566;27.820;2023-11-19T09:52:02;8.93;;;6.50;;
9904;SDS011;4991;43.566;27.820;2023-11-19T09:54:31;13.03;;;9.73;;
9904;SDS011;4991;43.566;27.820;2023-11-19T09:56:57;11.30;;;6.90;;
9904;SDS011;4991;43.566;27.820;2023-11-19T09:59:30;9.70;;;6.43;;
9904;SDS011;4991;43.566;27.820;2023-11-19T10:01:58;9.37;;;7.13;;
9904;SDS011;4991;43.566;27.820;2023-11-19T10:04:25;10.33;;;6.57;;
9904;SDS011;4991;43.566;27.820;2023-11-19T10:06:55;11.33;;;6.63;;
9904;SDS011;4991;43.566;27.820;2023-11-19T10:09:20;15.63;;;9.30;;
9904;SDS011;4991;43.566;27.820;2023-11-19T10:11:47;11.63;;;8.57;;
9904;SDS011;4991;43.566;27.820;2023-11-19T10:14:23;18.30;;;11.93;;
9904;SDS011;4991;43.566;27.820;2023-11-19T10:16:51;12.50;;;7.33;;
9904;SDS011;4991;43.566;27.820;2023-11-19T10:19:21;9.87;;;7.67;;
9904;SDS011;4991;43.566;27.820;2023-11-19T10:21:48;9.73;;;6.70;;
9904;SDS011;4991;43.566;27.820;2023-11-19T10:24:30;14.23;;;9.07;;
9904;SDS011;4991;43.566;27.820;2023-11-19T10:27:20;10.90;;;7.27;;
9904;SDS011;4991;43.566;27.820;2023-11-19T10:29:50;9.77;;;7.07;;
9904;SDS011;4991;43.566;27.820;2023-11-19T10:32:15;14.13;;;10.17;;
9904;SDS011;4991;43.566;27.820;2023-11-19T10:34:41;9.87;;;6.07;;
9904;SDS011;4991;43.566;27.820;2023-11-19T10:39:55;10.53;;;7.27;;
9904;SDS011;4991;43.566;27.820;2023-11-19T10:42:21;9.27;;;6.63;;
9904;SDS011;4991;43.566;27.820;2023-11-19T10:44:47;7.57;;;6.00;;
9904;SDS011;4991;43.566;27.820;2023-11-19T10:47:13;11.40;;;7.87;;
9904;SDS011;4991;43.566;27.820;2023-11-19T10:49:40;7.37;;;4.93;;
9904;SDS011;4991;43.566;27.820;2023-11-19T10:52:08;14.43;;;9.33;;
9904;SDS011;4991;43.566;27.820;2023-11-19T10:54:34;9.47;;;5.77;;
9904;SDS011;4991;43.566;27.820;2023-11-19T10:57:01;12.83;;;6.60;;
9904;SDS011;4991;43.566;27.820;2023-11-19T10:59:31;8.57;;;5.80;;
9904;SDS011;4991;43.566;27.820;2023-11-19T11:01:58;12.33;;;7.67;;
9904;SDS011;4991;43.566;27.820;2023-11-19T11:04:31;8.17;;;6.07;;
9904;SDS011;4991;43.566;27.820;2023-11-19T11:07:04;10.57;;;7.63;;
9904;SDS011;4991;43.566;27.820;2023-11-19T11:09:38;9.70;;;6.80;;
9904;SDS011;4991;43.566;27.820;2023-11-19T11:12:09;10.77;;;7.33;;
9904;SDS011;4991;43.566;27.820;2023-11-19T11:14:37;10.40;;;7.23;;
9904;SDS011;4991;43.566;27.820;2023-11-19T11:17:03;10.57;;;6.93;;
9904;SDS011;4991;43.566;27.820;2023-11-19T11:19:33;0.07;;;0.07;;
9904;SDS011;4991;43.566;27.820;2023-11-19T11:22:00;0.10;;;0.10;;
9904;SDS011;4991;43.566;27.820;2023-11-19T11:24:35;0.57;;;0.57;;
9904;SDS011;4991;43.566;27.820;2023-11-19T11:33:20;0.10;;;0.10;;
9904;SDS011;4991;43.566;27.820;2023-11-19T11:36:10;0.30;;;0.30;;
9904;SDS011;4991;43.566;27.820;2023-11-19T11:38:45;0.10;;;0.10;;
9904;SDS011;4991;43.566;27.820;2023-11-19T11:41:17;0.10;;;0.10;;
9904;SDS011;4991;43.566;27.820;2023-11-19T11:43:54;0.10;;;0.10;;
9904;SDS011;4991;43.566;27.820;2023-11-19T11:49:01;0.10;;;0.10;;
9904;SDS011;4991;43.566;27.820;2023-11-19T12:02:10;0.10;;;0.10;;
9904;SDS011;4991;43.566;27.820;2023-11-19T12:04:41;0.10;;;0.10;;
9904;SDS011;4991;43.566;27.820;2023-11-19T12:07:14;0.00;;;0.00;;
9904;SDS011;4991;43.566;27.820;2023-11-19T12:09:42;0.00;;;0.00;;
9904;SDS011;4991;43.566;27.820;2023-11-19T12:20:01;0.10;;;0.10;;
9904;SDS011;4991;43.566;27.820;2023-11-19T12:22:28;0.00;;;0.00;;
9904;SDS011;4991;43.566;27.820;2023-11-19T12:24:54;0.00;;;0.00;;
9904;SDS011;4991;43.566;27.820;2023-11-19T12:27:21;0.13;;;0.13;;
9904;SDS011;4991;43.566;27.820;2023-11-19T12:29:49;0.27;;;0.27;;
9904;SDS011;4991;43.566;27.820;2023-11-19T12:32:16;0.10;;;0.10;;
9904;SDS011;4991;43.566;27.820;2023-11-19T12:34:41;0.10;;;0.10;;
9904;SDS011;4991;43.566;27.820;2023-11-19T12:37:07;0.07;;;0.07;;
9904;SDS011;4991;43.566;27.820;2023-11-19T12:39:35;0.00;;;0.00;;
9904;SDS011;4991;43.566;27.820;2023-11-19T12:42:01;0.10;;;0.10;;
9904;SDS011;4991;43.566;27.820;2023-11-19T12:44:27;0.03;;;0.03;;
9904;SDS011;4991;43.566;27.820;2023-11-19T12:47:00;0.03;;;0.03;;
9904;SDS011;4991;43.566;27.820;2023-11-19T12:49:26;0.00;;;0.00;;
9904;SDS011;4991;43.566;27.820;2023-11-19T12:51:52;0.00;;;0.00;;
9904;SDS011;4991;43.566;27.820;2023-11-19T12:54:18;0.10;;;0.10;;
9904;SDS011;4991;43.566;27.820;2023-11-19T12:56:53;0.10;;;0.10;;
9904;SDS011;4991;43.566;27.820;2023-11-19T12:59:19;0.10;;;0.10;;
9904;SDS011;4991;43.566;27.820;2023-11-19T13:01:54;0.00;;;0.00;;
9904;SDS011;4991;43.566;27.820;2023-11-19T13:04:20;0.10;;;0.10;;
9904;SDS011;4991;43.566;27.820;2023-11-19T13:06:46;0.00;;;0.00;;
9904;SDS011;4991;43.566;27.820;2023-11-19T13:09:25;0.10;;;0.10;;
9904;SDS011;4991;43.566;27.820;2023-11-19T13:11:53;0.10;;;0.10;;
9904;SDS011;4991;43.566;27.820;2023-11-19T13:14:20;0.00;;;0.00;;
9904;SDS011;4991;43.566;27.820;2023-11-19T13:16:46;0.00;;;0.00;;
9904;SDS011;4991;43.566;27.820;2023-11-19T13:19:12;0.10;;;0.10;;
9904;SDS011;4991;43.566;27.820;2023-11-19T13:21:39;0.10;;;0.10;;
9904;SDS011;4991;43.566;27.820;2023-11-19T13:24:05;0.10;;;0.10;;
9904;SDS011;4991;43.566;27.820;2023-11-19T13:26:31;0.00;;;0.00;;
9904;SDS011;4991;43.566;27.820;2023-11-19T13:28:57;0.00;;;0.00;;
9904;SDS011;4991;43.566;27.820;2023-11-19T13:31:22;1.70;;;1.70;;
9904;SDS011;4991;43.566;27.820;2023-11-19T13:33:48;0.20;;;0.20;;
9904;SDS011;4991;43.566;27.820;2023-11-19T13:36:14;0.10;;;0.10;;
9904;SDS011;4991;43.566;27.820;2023-11-19T13:38:40;0.10;;;0.10;;
9904;SDS011;4991;43.566;27.820;2023-11-19T13:41:10;0.10;;;0.10;;
9904;SDS011;4991;43.566;27.820;2023-11-19T13:43:37;0.00;;;0.00;;
9904;SDS011;4991;43.566;27.820;2023-11-19T13:46:02;0.10;;;0.10;;
9904;SDS011;4991;43.566;27.820;2023-11-19T13:48:29;0.00;;;0.00;;
9904;SDS011;4991;43.566;27.820;2023-11-19T13:50:55;0.10;;;0.10;;
9904;SDS011;4991;43.566;27.820;2023-11-19T13:53:21;0.10;;;0.10;;
9904;SDS011;4991;43.566;27.820;2023-11-19T13:55:48;0.00;;;0.00;;
9904;SDS011;4991;43.566;27.820;2023-11-19T13:58:13;0.00;;;0.00;;
9904;SDS011;4991;43.566;27.820;2023-11-19T14:00:39;0.00;;;0.00;;
9904;SDS011;4991;43.566;27.820;2023-11-19T14:03:07;0.00;;;0.00;;
9904;SDS011;4991;43.566;27.820;2023-11-19T14:05:32;0.00;;;0.00;;
9904;SDS011;4991;43.566;27.820;2023-11-19T14:07:58;0.03;;;0.03;;
9904;SDS011;4991;43.566;27.820;2023-11-19T14:10:24;0.00;;;0.00;;
9904;SDS011;4991;43.566;27.820;2023-11-19T14:12:50;0.20;;;0.20;;
9904;SDS011;4991;43.566;27.820;2023-11-19T14:15:16;0.00;;;0.00;;
9904;SDS011;4991;43.566;27.820;2023-11-19T14:17:42;0.10;;;0.10;;
9904;SDS011;4991;43.566;27.820;2023-11-19T14:20:08;0.10;;;0.10;;
9904;SDS011;4991;43.566;27.820;2023-11-19T14:22:43;0.00;;;0.00;;
9904;SDS011;4991;43.566;27.820;2023-11-19T14:25:12;0.20;;;0.20;;
9904;SDS011;4991;43.566;27.820;2023-11-19T14:27:37;0.00;;;0.00;;
9904;SDS011;4991;43.566;27.820;2023-11-19T14:30:07;0.00;;;0.00;;
9904;SDS011;4991;43.566;27.820;2023-11-19T14:32:36;0.10;;;0.10;;
9904;SDS011;4991;43.566;27.820;2023-11-19T14:35:02;0.10;;;0.10;;
9904;SDS011;4991;43.566;27.820;2023-11-19T14:37:29;0.10;;;0.10;;
9904;SDS011;4991;43.566;27.820;2023-11-19T14:39:56;0.10;;;0.10;;
9904;SDS011;4991;43.566;27.820;2023-11-19T14:42:24;0.37;;;0.37;;
9904;SDS011;4991;43.566;27.820;2023-11-19T14:44:52;0.20;;;0.20;;
9904;SDS011;4991;43.566;27.820;2023-11-19T14:47:18;0.10;;;0.10;;
9904;SDS011;4991;43.566;27.820;2023-11-19T14:49:45;12.60;;;8.83;;
9904;SDS011;4991;43.566;27.820;2023-11-19T14:52:10;0.10;;;0.10;;
9904;SDS011;4991;43.566;27.820;2023-11-19T14:54:36;0.10;;;0.10;;
9904;SDS011;4991;43.566;27.820;2023-11-19T14:57:02;0.10;;;0.10;;
9904;SDS011;4991;43.566;27.820;2023-11-19T14:59:28;0.10;;;0.10;;
9904;SDS011;4991;43.566;27.820;2023-11-19T15:01:54;2.40;;;2.33;;
9904;SDS011;4991;43.566;27.820;2023-11-19T15:04:20;0.00;;;0.00;;
9904;SDS011;4991;43.566;27.820;2023-11-19T15:06:45;0.00;;;0.00;;
9904;SDS011;4991;43.566;27.820;2023-11-19T15:09:11;0.00;;;0.00;;
9904;SDS011;4991;43.566;27.820;2023-11-19T15:11:42;0.00;;;0.00;;
9904;SDS011;4991;43.566;27.820;2023-11-19T15:14:12;0.00;;;0.00;;
9904;SDS011;4991;43.566;27.820;2023-11-19T15:16:41;0.10;;;0.10;;
9904;SDS011;4991;43.566;27.820;2023-11-19T15:19:07;0.10;;;0.10;;
9904;SDS011;4991;43.566;27.820;2023-11-19T15:21:33;0.00;;;0.00;;
9904;SDS011;4991;43.566;27.820;2023-11-19T15:23:59;0.10;;;0.10;;
9904;SDS011;4991;43.566;27.820;2023-11-19T15:26:25;0.00;;;0.00;;
9904;SDS011;4991;43.566;27.820;2023-11-19T15:28:51;0.10;;;0.10;;
9904;SDS011;4991;43.566;27.820;2023-11-19T15:31:22;0.00;;;0.00;;
9904;SDS011;4991;43.566;27.820;2023-11-19T15:33:47;0.20;;;0.20;;
9904;SDS011;4991;43.566;27.820;2023-11-19T15:36:13;0.00;;;0.00;;
9904;SDS011;4991;43.566;27.820;2023-11-19T15:38:39;0.10;;;0.10;;
9904;SDS011;4991;43.566;27.820;2023-11-19T15:41:05;0.10;;;0.10;;
9904;SDS011;4991;43.566;27.820;2023-11-19T15:46:06;20.23;;;12.13;;
9904;SDS011;4991;43.566;27.820;2023-11-19T15:48:33;0.00;;;0.00;;
9904;SDS011;4991;43.566;27.820;2023-11-19T15:50:58;0.10;;;0.10;;
9904;SDS011;4991;43.566;27.820;2023-11-19T15:53:25;0.10;;;0.10;;
9904;SDS011;4991;43.566;27.820;2023-11-19T15:55:50;2.87;;;2.77;;
9904;SDS011;4991;43.566;27.820;2023-11-19T15:58:18;0.10;;;0.10;;
9904;SDS011;4991;43.566;27.820;2023-11-19T16:00:44;0.00;;;0.00;;
9904;SDS011;4991;43.566;27.820;2023-11-19T16:03:12;2.13;;;2.03;;
9904;SDS011;4991;43.566;27.820;2023-11-19T16:05:38;0.00;;;0.00;;
9904;SDS011;4991;43.566;27.820;2023-11-19T16:08:05;0.00;;;0.00;;
9904;SDS011;4991;43.566;27.820;2023-11-19T16:10:31;0.00;;;0.00;;
9904;SDS011;4991;43.566;27.820;2023-11-19T16:12:58;0.00;;;0.00;;
9904;SDS011;4991;43.566;27.820;2023-11-19T16:15:23;0.03;;;0.03;;
9904;SDS011;4991;43.566;27.820;2023-11-19T16:17:49;3.10;;;3.00;;
9904;SDS011;4991;43.566;27.820;2023-11-19T16:20:14;0.00;;;0.00;;
9904;SDS011;4991;43.566;27.820;2023-11-19T16:22:40;0.10;;;0.10;;
9904;SDS011;4991;43.566;27.820;2023-11-19T16:25:09;0.00;;;0.00;;
9904;SDS011;4991;43.566;27.820;2023-11-19T16:27:35;0.10;;;0.10;;